Dernières infos :  

13/08/2017  Mise à jour des tableaux d'analyses décadaires
02/08/2017 Mise en ligne de la synthèse climatologique de Juillet 2017 : 
CLIQUEZ ICI
01/08/2017  Mise à jour des tableaux d'analyses décadaires, mensuelles et annuelles : rubrique climatologie

31/07/2017 Vidéo du violent orage de dimanche soir 30/07 : CLIQUEZ ICI   

Si l'entête du tableau ne s'affiche pas correctement, => actualisez la page (F5 avec Internet Explorer, Chrome...).
Utilisez l'ascenseur sur la droite des lignes du tableau pour faire défiler verticalement les jours du mois.

TABLEAU DES DONNEES COMPLETES NOAA de AOUT 2013

DATE TEMPERATURE
sous abri
TEMPARATURE 
au sol
VENT  et  Indice de Refroidissement Eolien  PRECIPITATIONS (en mm/m2)
et Intensité
PRESSION ATMOSPHERIQUE (en hPa) HUMIDITE de l'AIR RADIATIONS SOLAIRES (en W/m2)
Mini Moy. Maxi Mini Moy. Maxi Moyen Rafale I.R.E.
Minii
Précip. jour Cumul mois Intensité Maxi Mini Moy. Maxi Mini Moy. Maxi Pic maxi du jour Total jour
01/08/2013 16.3° 24.7° 33.3° 13.9° 26.1° 41.1° 3.9km/h dir S 41.8km/h dir SSO 16.3° 0 0   1012 1014.4 1016.2 29% 70.4% 97% 844 74 726
02/08/2013 22.5° 27.4° 33.6° 17.8° 28.6° 40.6° 8.4km/h dir S 46.7km/h dir SSO 22.6° 0 0   1011.2 1012.6 1014 30% 47% 59% 816 25 828
03/08/2013 18.2° 24.6° 28.9° 15° 28.1° 43.3° 4.3km/h dir N 24.1km/h dir SE 18.3° 0 0   1012.3 1016.8 1018.7 46% 63.8% 82% 977 23 600
04/08/2013 17.6° 22.7° 28.7° ° ° ° 3.5km/h dir N 20.9km/h dir NO 17.7° 9.2 9.2 122.6mm/h 1017.1 1018.8 1020.9 55% 74.2% 93% 933 22 724
05/08/2013 17.6° 25.1° 33.3° ° ° ° 1.8km/h dir S 25.7km/h dir SSO 17.7° 0 9.2   1011.4 1014.3 1017.6 33% 69.7% 96% 854 23 784
06/08/2013 18.7° 24.1° 30.3° ° ° ° 2.3km/h dir N 19.3km/h dir N 18.7° 0 9.2   1008.7 1013.1 1015.8 52% 74.8% 94% 967 21 799
07/08/2013 16.6° 18.8° 21.6° ° ° ° 1.3km/h dir S 30.6km/h dir S 16.6° 23.6 32.8 20mm/h 1007.9 1010.5 1012.5 82% 90.8% 96% 519 4 233
08/08/2013 15.8° 17.6° 19.3° ° ° ° 1.9km/h dir N 24.1km/h dir NNO 15.8° 7.6 40.4 6mm/h 1011.8 1015.2 1020.7 85% 93.2% 97% 626 5 537
09/08/2013 13.5° 19.3° 25.1° ° ° ° 2.1km/h dir N 20.9km/h dir E 13.5° 0 40.4   1020.4 1021.2 1022.3 49% 75.9% 95% 946 24 414
10/08/2013 13.9° 19.8° 25.6° ° ° ° 3.4km/h dir NO 20.9km/h dir NNO 13.9° 0 40.4   1019.3 1020.7 1021.7 49% 75.4% 96% 983 24 418
11/08/2013 11.8° 18.8° 25.1° ° ° ° 2.3km/h dir N 19.3km/h dir NNO 11.8° 0 40.4   1017.6 1019.3 1020.6 48% 72.5% 96% 819 25 223
12/08/2013 12.4° 20.7° 29.2° ° ° ° 0.5km/h dir OSO 12.9km/h dir NO 12.4° 0 40.4   1013.6 1016.1 1018.2 46% 72.7% 96% 819 25 328
13/08/2013 15.6° 19.9° 24.1° ° ° ° 5.3km/h dir N 24.1km/h dir N 15.6° 0 40.4   1015.1 1018.6 1020.2 47% 65.7% 89% 867 42 469
14/08/2013 11.1° 17.4° 23.6° 13.3° 15.8° 19.4° 7.7km/h dir N 33.8km/h dir NE 11.1° 0 40.4   1019.7 1020.5 1021.2 45% 67.8% 92% 816 72 793
15/08/2013 9.8° 18° 26.5° 7.8° 19.6° 35° 1.1km/h dir N 16.1km/h dir NO 9.9° 0 40.4   1018 1019.7 1021.3 48% 72.5% 93% 807 73 966
16/08/2013 12.6° 21.4° 30.1° 10° 22.7° 38.9° 1.1km/h dir SSO 17.7km/h dir S 12.6° 0 40.4   1014.5 1016.8 1018.5 39% 71.8% 97% 795 72 031
17/08/2013 15.3° 22.2° 29.3° 13.9° 23.7° 38.3° 1.3km/h dir NO 17.7km/h dir ONO 15.4° 0 40.4   1014.8 1016 1017 41% 68.9% 94% 779 67 449
18/08/2013 14.6° 22.4° 30.8° 12.8° 24.2° 40° 1.3km/h dir SSO 19.3km/h dir N 14.6° 0 40.4   1014.1 1015.3 1016.5 43% 71.2% 94% 780 70 208
19/08/2013 16.1° 21.4° 25.2° 12.8° 22° 33.3° 3.1km/h dir NO 24.1km/h dir NO 16.2° 0 40.4   1014.3 1017.7 1022.5 46% 70.3% 85% 991 43 879
20/08/2013 12.6° 19° 25.1° 10.6° 20.4° 32.8° 9.7km/h dir N 35.4km/h dir N 12.7° 0 40.4   1021.6 1023 1024.7 43% 66% 91% 789 71 720
21/08/2013 9.2° 17.8° 26° 6.1° 19.2° 35° 2.1km/h dir N 19.3km/h dir NNO 9.2° 0 40.4   1017.9 1020.3 1022.1 44% 70.5% 95% 795 71 035
22/08/2013 11° 19.6° 28.9° 8.9° 21.1° 39.4° 0.6km/h dir SSO 12.9km/h dir N 11.1° 0 40.4   1013.1 1015.5 1018 41% 72.2% 96% 779 70 554
23/08/2013 13.9° 22.2° 30.8° 11.7° 23.3° 40° 1.3km/h dir SSO 25.7km/h dir SSO 13.9° 0 40.4   1011.3 1013.1 1014.2 39% 66.2% 91% 791 68 977
24/08/2013 14.3° 18.9° 23.7° 12.2° 19° 31.1° 1.1km/h dir SE 32.2km/h dir ONO 14.3° 50.6 91 202.2mm/h 1010.5 1012.2 1013.6 64% 84.7% 96% 902 22 534
25/08/2013 13.1° 16.8° 21.6° 10.6° 19.1° 32.8° 2.4km/h dir N 33.8km/h dir 0 13.1° 0.2 91.2   1010.8 1012.3 1013.8 52% 78.3% 97% 965 63 318
26/08/2013 10° 15.3° 21.4° 7.2° 17.3° 33.3° 3.1km/h dir NNO 24.1km/h dir 0 10° 0 91.2   1011.3 1012.1 1013 59% 82.6% 97% 976 57 938
27/08/2013 13.6° 16.3° 20.5° 11.7° 17° 32.8° 0.6km/h dir OSO 14.5km/h dir 0 13.7° 0.8 92 1.2mm/h 1012.1 1012.7 1014.4 72% 88.4% 94% 905 31 898
28/08/2013 13.8° 17.2° 22.8° 11.7° 18.8° 32.8° 4.8km/h dir N 29km/h dir 0 13.8° 0.2 92.2   1014.4 1016.4 1018.1 63% 84.1% 97% 930 50 587
29/08/2013 12° 16.9° 24.1° 8.9° 18.5° 35° 1.9km/h dir N 20.9km/h dir 0 12° 0 92.2   1017.8 1019.2 1020.5 55% 81% 96% 958 51 898
30/08/2013 10.4° 17.6° 25.5° 7.8° 19.2° 37.2° 1.4km/h dir NO 17.7km/h dir 0 10.4° 0 92.2   1019 1019.7 1020.5 42% 75.9% 97% 784 65 853
31/08/2013 11.9° 19.2° 25.7° 9.4° 20.8° 37.2° 3.2km/h dir N 20.9km/h dir 0 11.9° 0 92.2   1020.5 1021.1 1022.1 47% 73.1% 96% 758 64 642

RETOUR ACCUEIL


Date de création : 12/01/2014 : 15:08
Dernière modification : 09/02/2015 : 18:25
Catégorie : ARCHIVES 2002 à 2016 - ANNEES 2010 à 2019 - ANNEE 2013 - AOUT 2013
Page lue 1718 fois


Réactions à cet article

Personne n'a encore laissé de commentaire.
Soyez donc le premier !